Terminal Aerodrome Forecast
Issued by NWS

Home | Current Version | Previous Version | Graphics & Text | Print | Product List | Glossary On
Versions: 1 2 3 4 5 6 7 8 9 10 11 12 13 14 15
000
FTUS43 KUNR 220825 AAA
TAFGCC
TAF AMD
KGCC 220825Z 2208/2306 24011KT P6SM SCT080
     FM220900 24015KT P6SM -SHRA OVC080
     FM221700 34023G33KT P6SM BKN070=

USA.gov is the U.S. government's official web portal to all federal, state and local government web resources and services.